Amstetten, Austria

10:34 PM CEST on September 02, 2015 (GMT +0200)
Grein an der Donau | | Change Station
CLOSE
Current Station
Personal Weather Station
Location: Grein, OBERöSTERREICH
Elevation: 794 ft
Nearby Weather Stations

Elev 794 ft 48.23 °N, 14.85 °E | Updated 7 seconds ago

Light Rain Showers
Light Showers Rain
62.4 °F
Feels Like 62.4 °F
N
0.0
Wind Variable Wind from NE
Gusts 0.0 mph

Today
High -- | Low -- °F
--% Chance of Precip.
Yesterday
High -- | Low -- °F
Precip. -- in
6:19 AM 7:40 PM
Waning Gibbous, 77% visible
Pressure 30.04 in
Visibility 5.0 miles
Clouds Few 900 ft
Scattered Clouds 2800 ft
Mostly Cloudy 4700 ft
Dew Point 60 °F
Humidity 90%
Rainfall 0.32 in
Snow Depth Not available.
UV 0.0 out of 12
Pollen Not available.
Air Quality Not available.
Flu Activity Not available.
METAR LOWL 022020Z 05005KT 010V090 8000 -SHRA FEW009 SCT028 BKN047 15/13 Q1017 NOSIG
Pressure 30.04 in
Visibility 5.0 miles
Clouds Few 900 ft
Scattered Clouds 2800 ft
Mostly Cloudy 4700 ft
Dew Point 60 °F
Humidity 90%
Rainfall 0.32 in
Snow Depth Not available.
UV 0.0 out of 12
Pollen Not available.
Air Quality Not available.
Flu Activity Not available.
METAR LOWL 022020Z 05005KT 010V090 8000 -SHRA FEW009 SCT028 BKN047 15/13 Q1017 NOSIG

10-Day Weather Forecast

×

Almanac

Astronomy

Sep. 02, 2015 Rise Set
Actual Time
Civil Twilight
Nautical Twilight
Astronomical Twilight
Moon
Length of Visible Light
Length of Day
Tomorrow will be .
, % of the Moon is Illuminated

Today's Extremes

Country Highs Country Lows

Community

WunderPhotos

Upload Photos

1,851,806 photos uploaded!

WunderBlogs® & News

Nearby

Air Quality

  Air Quality AQ Index Pollutant
Not available.

Snow Depth

Station Depth Elevation

Earthquake Activity

City Distance Mag. Time & Date
Minimum magnitude displayed is 2.5.

Coastal Water Temperatures

Place Temperature

Stations

Nearby Weather Stations

Station Location Temp. Windchill Dew Point Humidity Wind Precip. Elev Updated Type